sensor_id;sensor_type;location;lat;lon;timestamp;temperature;humidity
10051;DHT22;5065;46.942;7.432;2023-02-19T00:01:07;9.30;99.90
10051;DHT22;5065;46.942;7.432;2023-02-19T00:03:35;9.20;99.90
10051;DHT22;5065;46.942;7.432;2023-02-19T00:06:03;9.10;99.90
10051;DHT22;5065;46.942;7.432;2023-02-19T00:08:31;9.00;99.90
10051;DHT22;5065;46.942;7.432;2023-02-19T00:11:02;9.00;99.90
10051;DHT22;5065;46.942;7.432;2023-02-19T00:13:35;9.00;99.90
10051;DHT22;5065;46.942;7.432;2023-02-19T00:16:05;8.90;99.90
10051;DHT22;5065;46.942;7.432;2023-02-19T00:18:32;8.90;99.90
10051;DHT22;5065;46.942;7.432;2023-02-19T00:21:03;8.90;99.90
10051;DHT22;5065;46.942;7.432;2023-02-19T00:23:31;8.90;99.90
10051;DHT22;5065;46.942;7.432;2023-02-19T00:26:01;8.90;99.90
10051;DHT22;5065;46.942;7.432;2023-02-19T00:28:29;8.90;99.90
10051;DHT22;5065;46.942;7.432;2023-02-19T00:31:03;9.00;99.90
10051;DHT22;5065;46.942;7.432;2023-02-19T00:33:30;9.00;99.90
10051;DHT22;5065;46.942;7.432;2023-02-19T00:35:59;9.00;99.90
10051;DHT22;5065;46.942;7.432;2023-02-19T00:38:27;8.90;99.90
10051;DHT22;5065;46.942;7.432;2023-02-19T00:40:54;8.90;99.90
10051;DHT22;5065;46.942;7.432;2023-02-19T00:43:21;8.90;99.90
10051;DHT22;5065;46.942;7.432;2023-02-19T00:45:48;8.80;99.90
10051;DHT22;5065;46.942;7.432;2023-02-19T00:48:17;8.80;99.90
10051;DHT22;5065;46.942;7.432;2023-02-19T00:50:44;8.70;99.90
10051;DHT22;5065;46.942;7.432;2023-02-19T00:53:11;8.70;99.90
10051;DHT22;5065;46.942;7.432;2023-02-19T00:55:38;8.60;99.90
10051;DHT22;5065;46.942;7.432;2023-02-19T00:58:05;8.60;99.90
10051;DHT22;5065;46.942;7.432;2023-02-19T01:00:32;8.60;99.90
10051;DHT22;5065;46.942;7.432;2023-02-19T01:02:59;8.60;99.90
10051;DHT22;5065;46.942;7.432;2023-02-19T01:05:29;8.50;99.90
10051;DHT22;5065;46.942;7.432;2023-02-19T01:07:56;8.50;99.90
10051;DHT22;5065;46.942;7.432;2023-02-19T01:10:23;8.50;99.90
10051;DHT22;5065;46.942;7.432;2023-02-19T01:12:50;8.40;99.90
10051;DHT22;5065;46.942;7.432;2023-02-19T01:15:17;8.50;99.90
10051;DHT22;5065;46.942;7.432;2023-02-19T01:17:45;8.50;99.90
10051;DHT22;5065;46.942;7.432;2023-02-19T01:20:12;8.40;99.90
10051;DHT22;5065;46.942;7.432;2023-02-19T01:22:40;8.50;99.90
10051;DHT22;5065;46.942;7.432;2023-02-19T01:25:07;8.40;99.90
10051;DHT22;5065;46.942;7.432;2023-02-19T01:27:34;8.40;99.90
10051;DHT22;5065;46.942;7.432;2023-02-19T01:30:02;8.40;99.90
10051;DHT22;5065;46.942;7.432;2023-02-19T01:32:29;8.40;99.90
10051;DHT22;5065;46.942;7.432;2023-02-19T01:34:56;8.40;99.90
10051;DHT22;5065;46.942;7.432;2023-02-19T01:37:24;8.30;99.90
10051;DHT22;5065;46.942;7.432;2023-02-19T01:39:52;8.30;99.90
10051;DHT22;5065;46.942;7.432;2023-02-19T01:42:20;8.20;99.90
10051;DHT22;5065;46.942;7.432;2023-02-19T01:47:57;8.20;99.90
10051;DHT22;5065;46.942;7.432;2023-02-19T01:50:28;8.10;99.90
10051;DHT22;5065;46.942;7.432;2023-02-19T01:52:57;8.10;99.90
10051;DHT22;5065;46.942;7.432;2023-02-19T01:55:26;8.10;99.90
10051;DHT22;5065;46.942;7.432;2023-02-19T01:57:55;8.10;99.90
10051;DHT22;5065;46.942;7.432;2023-02-19T02:00:23;8.10;99.90
10051;DHT22;5065;46.942;7.432;2023-02-19T02:02:51;8.10;99.90
10051;DHT22;5065;46.942;7.432;2023-02-19T02:05:32;8.10;99.90
10051;DHT22;5065;46.942;7.432;2023-02-19T02:08:02;8.00;99.90
10051;DHT22;5065;46.942;7.432;2023-02-19T02:10:49;8.00;99.90
10051;DHT22;5065;46.942;7.432;2023-02-19T02:13:16;8.00;99.90
10051;DHT22;5065;46.942;7.432;2023-02-19T02:15:53;8.00;99.90
10051;DHT22;5065;46.942;7.432;2023-02-19T02:18:34;7.90;99.90
10051;DHT22;5065;46.942;7.432;2023-02-19T02:21:26;7.90;99.90
10051;DHT22;5065;46.942;7.432;2023-02-19T02:24:08;7.80;99.90
10051;DHT22;5065;46.942;7.432;2023-02-19T02:26:57;7.80;99.90
10051;DHT22;5065;46.942;7.432;2023-02-19T02:29:50;7.90;99.90
10051;DHT22;5065;46.942;7.432;2023-02-19T02:32:23;7.90;99.90
10051;DHT22;5065;46.942;7.432;2023-02-19T02:34:54;7.80;99.90
10051;DHT22;5065;46.942;7.432;2023-02-19T02:37:24;7.80;99.90
10051;DHT22;5065;46.942;7.432;2023-02-19T02:39:53;7.80;99.90
10051;DHT22;5065;46.942;7.432;2023-02-19T02:42:21;7.70;99.90
10051;DHT22;5065;46.942;7.432;2023-02-19T02:44:57;7.70;99.90
10051;DHT22;5065;46.942;7.432;2023-02-19T02:47:45;7.70;99.90
10051;DHT22;5065;46.942;7.432;2023-02-19T02:50:18;7.70;99.90
10051;DHT22;5065;46.942;7.432;2023-02-19T02:52:48;7.70;99.90
10051;DHT22;5065;46.942;7.432;2023-02-19T02:55:36;7.60;99.90
10051;DHT22;5065;46.942;7.432;2023-02-19T02:58:05;7.60;99.90
10051;DHT22;5065;46.942;7.432;2023-02-19T03:00:36;7.70;99.90
10051;DHT22;5065;46.942;7.432;2023-02-19T03:03:23;7.60;99.90
10051;DHT22;5065;46.942;7.432;2023-02-19T03:05:55;7.70;99.90
10051;DHT22;5065;46.942;7.432;2023-02-19T03:08:28;7.70;99.90
10051;DHT22;5065;46.942;7.432;2023-02-19T03:10:58;7.70;99.90
10051;DHT22;5065;46.942;7.432;2023-02-19T03:13:50;7.70;99.90
10051;DHT22;5065;46.942;7.432;2023-02-19T03:16:38;7.70;99.90
10051;DHT22;5065;46.942;7.432;2023-02-19T03:19:26;7.70;99.90
10051;DHT22;5065;46.942;7.432;2023-02-19T03:21:58;7.60;99.90
10051;DHT22;5065;46.942;7.432;2023-02-19T03:24:28;7.60;99.90
10051;DHT22;5065;46.942;7.432;2023-02-19T03:27:15;7.60;99.90
10051;DHT22;5065;46.942;7.432;2023-02-19T03:29:43;7.70;99.90
10051;DHT22;5065;46.942;7.432;2023-02-19T03:32:16;7.70;99.90
10051;DHT22;5065;46.942;7.432;2023-02-19T03:34:51;7.70;99.90
10051;DHT22;5065;46.942;7.432;2023-02-19T03:37:24;7.60;99.90
10051;DHT22;5065;46.942;7.432;2023-02-19T03:39:53;7.70;99.90
10051;DHT22;5065;46.942;7.432;2023-02-19T03:42:30;7.70;99.90
10051;DHT22;5065;46.942;7.432;2023-02-19T03:48:17;7.60;99.90
10051;DHT22;5065;46.942;7.432;2023-02-19T03:50:48;7.70;99.90
10051;DHT22;5065;46.942;7.432;2023-02-19T03:53:22;7.70;99.90
10051;DHT22;5065;46.942;7.432;2023-02-19T03:55:57;7.70;99.90
10051;DHT22;5065;46.942;7.432;2023-02-19T03:58:30;7.70;99.90
10051;DHT22;5065;46.942;7.432;2023-02-19T04:01:03;7.60;99.90
10051;DHT22;5065;46.942;7.432;2023-02-19T04:03:36;7.60;99.90
10051;DHT22;5065;46.942;7.432;2023-02-19T04:06:10;7.70;99.90
10051;DHT22;5065;46.942;7.432;2023-02-19T04:08:42;7.70;99.90
10051;DHT22;5065;46.942;7.432;2023-02-19T04:11:13;7.70;99.90
10051;DHT22;5065;46.942;7.432;2023-02-19T04:13:43;7.80;99.90
10051;DHT22;5065;46.942;7.432;2023-02-19T04:16:14;7.80;99.90
10051;DHT22;5065;46.942;7.432;2023-02-19T04:18:47;7.80;99.90
10051;DHT22;5065;46.942;7.432;2023-02-19T04:21:16;7.80;99.90
10051;DHT22;5065;46.942;7.432;2023-02-19T04:23:45;7.80;99.90
10051;DHT22;5065;46.942;7.432;2023-02-19T04:26:14;7.80;99.90
10051;DHT22;5065;46.942;7.432;2023-02-19T04:28:42;7.80;99.90
10051;DHT22;5065;46.942;7.432;2023-02-19T04:31:10;7.80;99.90
10051;DHT22;5065;46.942;7.432;2023-02-19T04:33:37;7.90;99.90
10051;DHT22;5065;46.942;7.432;2023-02-19T04:36:08;7.90;99.90
10051;DHT22;5065;46.942;7.432;2023-02-19T04:38:36;7.90;99.90
10051;DHT22;5065;46.942;7.432;2023-02-19T04:41:03;8.00;99.90
10051;DHT22;5065;46.942;7.432;2023-02-19T04:43:30;7.90;99.90
10051;DHT22;5065;46.942;7.432;2023-02-19T04:45:59;7.90;99.90
10051;DHT22;5065;46.942;7.432;2023-02-19T04:48:27;7.90;99.90
10051;DHT22;5065;46.942;7.432;2023-02-19T04:50:54;7.90;99.90
10051;DHT22;5065;46.942;7.432;2023-02-19T04:53:23;7.80;99.90
10051;DHT22;5065;46.942;7.432;2023-02-19T04:55:50;7.90;99.90
10051;DHT22;5065;46.942;7.432;2023-02-19T04:58:19;7.90;99.90
10051;DHT22;5065;46.942;7.432;2023-02-19T05:00:50;8.00;99.90
10051;DHT22;5065;46.942;7.432;2023-02-19T05:03:17;8.00;99.90
10051;DHT22;5065;46.942;7.432;2023-02-19T05:05:45;8.10;99.90
10051;DHT22;5065;46.942;7.432;2023-02-19T05:08:12;8.20;99.90
10051;DHT22;5065;46.942;7.432;2023-02-19T05:10:41;8.30;99.90
10051;DHT22;5065;46.942;7.432;2023-02-19T05:13:08;8.40;99.90
10051;DHT22;5065;46.942;7.432;2023-02-19T05:15:35;8.40;99.90
10051;DHT22;5065;46.942;7.432;2023-02-19T05:18:02;8.40;99.90
10051;DHT22;5065;46.942;7.432;2023-02-19T05:20:30;8.40;99.90
10051;DHT22;5065;46.942;7.432;2023-02-19T05:22:57;8.40;99.90
10051;DHT22;5065;46.942;7.432;2023-02-19T05:25:24;8.30;99.90
10051;DHT22;5065;46.942;7.432;2023-02-19T05:27:52;8.30;99.90
10051;DHT22;5065;46.942;7.432;2023-02-19T05:30:40;8.30;99.90
10051;DHT22;5065;46.942;7.432;2023-02-19T05:33:09;8.30;99.90
10051;DHT22;5065;46.942;7.432;2023-02-19T05:35:40;8.30;99.90
10051;DHT22;5065;46.942;7.432;2023-02-19T05:38:08;8.20;99.90
10051;DHT22;5065;46.942;7.432;2023-02-19T05:40:36;8.10;99.90
10051;DHT22;5065;46.942;7.432;2023-02-19T05:43:05;8.10;99.90
10051;DHT22;5065;46.942;7.432;2023-02-19T05:45:33;8.10;99.90
10051;DHT22;5065;46.942;7.432;2023-02-19T05:48:01;8.10;99.90
10051;DHT22;5065;46.942;7.432;2023-02-19T05:50:28;8.10;99.90
10051;DHT22;5065;46.942;7.432;2023-02-19T05:52:56;8.20;99.90
10051;DHT22;5065;46.942;7.432;2023-02-19T05:55:25;8.20;99.90
10051;DHT22;5065;46.942;7.432;2023-02-19T05:57:52;8.10;99.90
10051;DHT22;5065;46.942;7.432;2023-02-19T06:00:21;8.00;99.90
10051;DHT22;5065;46.942;7.432;2023-02-19T06:02:52;8.00;99.90
10051;DHT22;5065;46.942;7.432;2023-02-19T06:05:19;8.00;99.90
10051;DHT22;5065;46.942;7.432;2023-02-19T06:07:46;8.00;99.90
10051;DHT22;5065;46.942;7.432;2023-02-19T06:10:15;8.10;99.90
10051;DHT22;5065;46.942;7.432;2023-02-19T06:12:43;8.00;99.90
10051;DHT22;5065;46.942;7.432;2023-02-19T06:15:10;8.00;99.90
10051;DHT22;5065;46.942;7.432;2023-02-19T06:17:39;8.00;99.90
10051;DHT22;5065;46.942;7.432;2023-02-19T06:20:08;7.90;99.90
10051;DHT22;5065;46.942;7.432;2023-02-19T06:22:35;7.90;99.90
10051;DHT22;5065;46.942;7.432;2023-02-19T06:25:02;7.90;99.90
10051;DHT22;5065;46.942;7.432;2023-02-19T06:27:31;7.90;99.90
10051;DHT22;5065;46.942;7.432;2023-02-19T06:29:59;7.90;99.90
10051;DHT22;5065;46.942;7.432;2023-02-19T06:32:26;7.90;99.90
10051;DHT22;5065;46.942;7.432;2023-02-19T06:34:54;7.90;99.90
10051;DHT22;5065;46.942;7.432;2023-02-19T06:37:21;7.90;99.90
10051;DHT22;5065;46.942;7.432;2023-02-19T06:39:49;7.90;99.90
10051;DHT22;5065;46.942;7.432;2023-02-19T06:42:16;7.90;99.90
10051;DHT22;5065;46.942;7.432;2023-02-19T06:44:43;7.90;99.90
10051;DHT22;5065;46.942;7.432;2023-02-19T06:47:11;7.90;99.90
10051;DHT22;5065;46.942;7.432;2023-02-19T06:49:38;7.90;99.90
10051;DHT22;5065;46.942;7.432;2023-02-19T06:52:07;7.80;99.90
10051;DHT22;5065;46.942;7.432;2023-02-19T06:54:34;7.80;99.90
10051;DHT22;5065;46.942;7.432;2023-02-19T06:57:01;7.90;99.90
10051;DHT22;5065;46.942;7.432;2023-02-19T06:59:29;7.90;99.90
10051;DHT22;5065;46.942;7.432;2023-02-19T07:01:57;7.90;99.90
10051;DHT22;5065;46.942;7.432;2023-02-19T07:04:24;7.90;99.90
10051;DHT22;5065;46.942;7.432;2023-02-19T07:06:51;8.00;99.90
10051;DHT22;5065;46.942;7.432;2023-02-19T07:09:19;8.00;99.90
10051;DHT22;5065;46.942;7.432;2023-02-19T07:11:47;8.00;99.90
10051;DHT22;5065;46.942;7.432;2023-02-19T07:14:15;8.00;99.90
10051;DHT22;5065;46.942;7.432;2023-02-19T07:16:42;8.10;99.90
10051;DHT22;5065;46.942;7.432;2023-02-19T07:19:12;8.10;99.90
10051;DHT22;5065;46.942;7.432;2023-02-19T07:21:40;8.10;99.90
10051;DHT22;5065;46.942;7.432;2023-02-19T07:24:08;8.10;99.90
10051;DHT22;5065;46.942;7.432;2023-02-19T07:26:37;8.10;99.90
10051;DHT22;5065;46.942;7.432;2023-02-19T07:29:05;8.20;99.90
10051;DHT22;5065;46.942;7.432;2023-02-19T07:31:33;8.20;99.90
10051;DHT22;5065;46.942;7.432;2023-02-19T07:34:00;8.20;99.90
10051;DHT22;5065;46.942;7.432;2023-02-19T07:36:27;8.20;99.90
10051;DHT22;5065;46.942;7.432;2023-02-19T07:38:55;8.30;99.90
10051;DHT22;5065;46.942;7.432;2023-02-19T07:41:24;8.30;99.90
10051;DHT22;5065;46.942;7.432;2023-02-19T07:43:53;8.30;99.90
10051;DHT22;5065;46.942;7.432;2023-02-19T07:46:21;8.40;99.90
10051;DHT22;5065;46.942;7.432;2023-02-19T07:48:48;8.40;99.90
10051;DHT22;5065;46.942;7.432;2023-02-19T07:51:17;8.50;99.90
10051;DHT22;5065;46.942;7.432;2023-02-19T07:53:44;8.50;99.90
10051;DHT22;5065;46.942;7.432;2023-02-19T07:56:12;8.60;99.90
10051;DHT22;5065;46.942;7.432;2023-02-19T07:58:39;8.80;99.90
10051;DHT22;5065;46.942;7.432;2023-02-19T08:01:11;9.00;99.90
10051;DHT22;5065;46.942;7.432;2023-02-19T08:03:39;9.20;99.90
10051;DHT22;5065;46.942;7.432;2023-02-19T08:06:06;9.30;99.90
10051;DHT22;5065;46.942;7.432;2023-02-19T08:08:33;9.50;99.90
10051;DHT22;5065;46.942;7.432;2023-02-19T08:11:01;9.70;99.90
10051;DHT22;5065;46.942;7.432;2023-02-19T08:13:47;9.90;99.90
10051;DHT22;5065;46.942;7.432;2023-02-19T08:16:17;10.10;99.90
10051;DHT22;5065;46.942;7.432;2023-02-19T08:18:46;10.20;99.90
10051;DHT22;5065;46.942;7.432;2023-02-19T08:21:13;10.40;99.90
10051;DHT22;5065;46.942;7.432;2023-02-19T08:23:42;10.60;99.90
10051;DHT22;5065;46.942;7.432;2023-02-19T08:26:11;10.90;99.90
10051;DHT22;5065;46.942;7.432;2023-02-19T08:28:38;11.10;99.90
10051;DHT22;5065;46.942;7.432;2023-02-19T08:31:07;11.30;99.90
10051;DHT22;5065;46.942;7.432;2023-02-19T08:33:37;11.40;99.90
10051;DHT22;5065;46.942;7.432;2023-02-19T08:36:06;11.50;99.90
10051;DHT22;5065;46.942;7.432;2023-02-19T08:38:35;11.50;99.90
10051;DHT22;5065;46.942;7.432;2023-02-19T08:41:06;11.60;99.90
10051;DHT22;5065;46.942;7.432;2023-02-19T08:43:34;11.70;99.90
10051;DHT22;5065;46.942;7.432;2023-02-19T08:46:01;11.80;99.90
10051;DHT22;5065;46.942;7.432;2023-02-19T08:48:29;11.90;99.90
10051;DHT22;5065;46.942;7.432;2023-02-19T08:50:59;12.00;99.90
10051;DHT22;5065;46.942;7.432;2023-02-19T08:53:29;12.10;99.90
10051;DHT22;5065;46.942;7.432;2023-02-19T08:55:57;12.10;99.90
10051;DHT22;5065;46.942;7.432;2023-02-19T08:58:24;12.20;99.90
10051;DHT22;5065;46.942;7.432;2023-02-19T09:00:51;12.40;99.90
10051;DHT22;5065;46.942;7.432;2023-02-19T09:03:18;12.50;99.90
10051;DHT22;5065;46.942;7.432;2023-02-19T09:05:46;12.80;99.90
10051;DHT22;5065;46.942;7.432;2023-02-19T09:08:14;12.90;99.90
10051;DHT22;5065;46.942;7.432;2023-02-19T09:10:41;13.20;99.90
10051;DHT22;5065;46.942;7.432;2023-02-19T09:13:08;13.40;99.90
10051;DHT22;5065;46.942;7.432;2023-02-19T09:15:36;13.60;99.90
10051;DHT22;5065;46.942;7.432;2023-02-19T09:18:04;13.70;99.90
10051;DHT22;5065;46.942;7.432;2023-02-19T09:20:31;13.90;99.90
10051;DHT22;5065;46.942;7.432;2023-02-19T09:22:58;14.00;99.90
10051;DHT22;5065;46.942;7.432;2023-02-19T09:25:27;14.00;99.90
10051;DHT22;5065;46.942;7.432;2023-02-19T09:27:54;14.20;99.90
10051;DHT22;5065;46.942;7.432;2023-02-19T09:30:22;14.30;99.90
10051;DHT22;5065;46.942;7.432;2023-02-19T09:32:49;14.40;99.90
10051;DHT22;5065;46.942;7.432;2023-02-19T09:35:17;14.50;99.90
10051;DHT22;5065;46.942;7.432;2023-02-19T09:37:44;14.60;99.90
10051;DHT22;5065;46.942;7.432;2023-02-19T09:40:12;14.60;99.90
10051;DHT22;5065;46.942;7.432;2023-02-19T09:42:42;14.70;99.90
10051;DHT22;5065;46.942;7.432;2023-02-19T09:45:16;14.70;99.90
10051;DHT22;5065;46.942;7.432;2023-02-19T09:47:45;14.90;99.90
10051;DHT22;5065;46.942;7.432;2023-02-19T09:50:16;14.80;99.90
10051;DHT22;5065;46.942;7.432;2023-02-19T09:52:48;14.90;99.90
10051;DHT22;5065;46.942;7.432;2023-02-19T09:55:22;15.00;99.90
10051;DHT22;5065;46.942;7.432;2023-02-19T09:57:56;15.00;99.90
10051;DHT22;5065;46.942;7.432;2023-02-19T10:00:26;15.10;99.90
10051;DHT22;5065;46.942;7.432;2023-02-19T10:02:57;15.10;99.90
10051;DHT22;5065;46.942;7.432;2023-02-19T10:05:26;15.10;99.90
10051;DHT22;5065;46.942;7.432;2023-02-19T10:07:54;15.20;99.90
10051;DHT22;5065;46.942;7.432;2023-02-19T10:10:27;15.20;99.90
10051;DHT22;5065;46.942;7.432;2023-02-19T10:13:10;15.20;99.90
10051;DHT22;5065;46.942;7.432;2023-02-19T10:15:45;15.10;99.90
10051;DHT22;5065;46.942;7.432;2023-02-19T10:18:16;15.10;99.90
10051;DHT22;5065;46.942;7.432;2023-02-19T10:20:45;15.10;99.90
10051;DHT22;5065;46.942;7.432;2023-02-19T10:23:14;15.20;99.90
10051;DHT22;5065;46.942;7.432;2023-02-19T10:25:45;15.20;99.90
10051;DHT22;5065;46.942;7.432;2023-02-19T10:28:17;15.30;99.90
10051;DHT22;5065;46.942;7.432;2023-02-19T10:30:49;15.40;99.90
10051;DHT22;5065;46.942;7.432;2023-02-19T10:33:17;15.40;99.90
10051;DHT22;5065;46.942;7.432;2023-02-19T10:35:54;15.50;99.90
10051;DHT22;5065;46.942;7.432;2023-02-19T10:38:24;15.50;99.90
10051;DHT22;5065;46.942;7.432;2023-02-19T10:40:59;15.50;99.90
10051;DHT22;5065;46.942;7.432;2023-02-19T10:43:30;15.60;99.90
10051;DHT22;5065;46.942;7.432;2023-02-19T10:46:04;15.70;99.90
10051;DHT22;5065;46.942;7.432;2023-02-19T10:48:35;15.70;99.90
10051;DHT22;5065;46.942;7.432;2023-02-19T10:51:06;15.70;99.90
10051;DHT22;5065;46.942;7.432;2023-02-19T10:53:39;15.80;99.90
10051;DHT22;5065;46.942;7.432;2023-02-19T10:56:08;15.80;99.90
10051;DHT22;5065;46.942;7.432;2023-02-19T10:58:37;15.80;99.90
10051;DHT22;5065;46.942;7.432;2023-02-19T11:01:15;15.80;99.90
10051;DHT22;5065;46.942;7.432;2023-02-19T11:03:45;15.80;99.90
10051;DHT22;5065;46.942;7.432;2023-02-19T11:06:14;15.80;99.90
10051;DHT22;5065;46.942;7.432;2023-02-19T11:08:54;15.90;99.90
10051;DHT22;5065;46.942;7.432;2023-02-19T11:11:30;15.90;99.90
10051;DHT22;5065;46.942;7.432;2023-02-19T11:14:03;16.00;99.90
10051;DHT22;5065;46.942;7.432;2023-02-19T11:16:40;15.90;99.90
10051;DHT22;5065;46.942;7.432;2023-02-19T11:19:27;15.90;99.90
10051;DHT22;5065;46.942;7.432;2023-02-19T11:21:56;15.90;99.90
10051;DHT22;5065;46.942;7.432;2023-02-19T11:24:29;16.00;99.90
10051;DHT22;5065;46.942;7.432;2023-02-19T11:27:00;16.00;99.90
10051;DHT22;5065;46.942;7.432;2023-02-19T11:29:29;16.10;99.90
10051;DHT22;5065;46.942;7.432;2023-02-19T11:32:22;16.20;99.90
10051;DHT22;5065;46.942;7.432;2023-02-19T11:35:15;16.20;99.90
10051;DHT22;5065;46.942;7.432;2023-02-19T11:37:56;16.20;99.90
10051;DHT22;5065;46.942;7.432;2023-02-19T11:40:37;16.30;99.90
10051;DHT22;5065;46.942;7.432;2023-02-19T11:43:16;16.30;99.90
10051;DHT22;5065;46.942;7.432;2023-02-19T11:45:52;16.30;99.90
10051;DHT22;5065;46.942;7.432;2023-02-19T11:51:42;16.30;99.90
10051;DHT22;5065;46.942;7.432;2023-02-19T11:54:25;16.20;99.90
10051;DHT22;5065;46.942;7.432;2023-02-19T11:57:02;16.30;99.90
10051;DHT22;5065;46.942;7.432;2023-02-19T11:59:40;16.30;99.90
10051;DHT22;5065;46.942;7.432;2023-02-19T12:02:34;16.30;99.90
10051;DHT22;5065;46.942;7.432;2023-02-19T12:05:19;16.20;99.90
10051;DHT22;5065;46.942;7.432;2023-02-19T12:08:08;16.20;99.90
10051;DHT22;5065;46.942;7.432;2023-02-19T12:10:56;16.20;99.90
10051;DHT22;5065;46.942;7.432;2023-02-19T12:13:33;16.20;99.90
10051;DHT22;5065;46.942;7.432;2023-02-19T12:16:11;16.20;99.90
10051;DHT22;5065;46.942;7.432;2023-02-19T12:18:57;16.20;99.90
10051;DHT22;5065;46.942;7.432;2023-02-19T12:21:41;16.20;99.90
10051;DHT22;5065;46.942;7.432;2023-02-19T12:24:34;16.20;99.90
10051;DHT22;5065;46.942;7.432;2023-02-19T12:27:17;16.30;99.90
10051;DHT22;5065;46.942;7.432;2023-02-19T12:33:00;16.20;99.90
10051;DHT22;5065;46.942;7.432;2023-02-19T12:35:42;16.30;99.90
10051;DHT22;5065;46.942;7.432;2023-02-19T12:38:20;16.30;99.90
10051;DHT22;5065;46.942;7.432;2023-02-19T12:43:41;16.30;99.90
10051;DHT22;5065;46.942;7.432;2023-02-19T12:46:15;16.30;99.90
10051;DHT22;5065;46.942;7.432;2023-02-19T12:48:47;16.20;99.90
10051;DHT22;5065;46.942;7.432;2023-02-19T12:51:23;16.20;99.90
10051;DHT22;5065;46.942;7.432;2023-02-19T12:53:55;16.20;99.90
10051;DHT22;5065;46.942;7.432;2023-02-19T12:56:27;16.20;99.90
10051;DHT22;5065;46.942;7.432;2023-02-19T12:58:59;16.20;99.90
10051;DHT22;5065;46.942;7.432;2023-02-19T13:01:31;16.10;99.90
10051;DHT22;5065;46.942;7.432;2023-02-19T13:04:17;16.10;99.90
10051;DHT22;5065;46.942;7.432;2023-02-19T13:06:54;16.10;99.90
10051;DHT22;5065;46.942;7.432;2023-02-19T13:09:26;16.10;99.90
10051;DHT22;5065;46.942;7.432;2023-02-19T13:11:58;16.10;99.90
10051;DHT22;5065;46.942;7.432;2023-02-19T13:14:31;16.10;99.90
10051;DHT22;5065;46.942;7.432;2023-02-19T13:17:05;16.00;99.90
10051;DHT22;5065;46.942;7.432;2023-02-19T13:19:36;16.10;99.90
10051;DHT22;5065;46.942;7.432;2023-02-19T13:22:24;16.00;99.90
10051;DHT22;5065;46.942;7.432;2023-02-19T13:25:13;15.90;99.90
10051;DHT22;5065;46.942;7.432;2023-02-19T13:27:58;15.90;99.90
10051;DHT22;5065;46.942;7.432;2023-02-19T13:30:34;15.90;99.90
10051;DHT22;5065;46.942;7.432;2023-02-19T13:33:17;15.90;99.90
10051;DHT22;5065;46.942;7.432;2023-02-19T13:36:09;15.90;99.90
10051;DHT22;5065;46.942;7.432;2023-02-19T13:38:41;15.90;99.90
10051;DHT22;5065;46.942;7.432;2023-02-19T13:41:20;15.90;99.90
10051;DHT22;5065;46.942;7.432;2023-02-19T13:44:02;15.90;99.90
10051;DHT22;5065;46.942;7.432;2023-02-19T13:46:36;15.90;99.90
10051;DHT22;5065;46.942;7.432;2023-02-19T13:52:38;15.80;99.90
10051;DHT22;5065;46.942;7.432;2023-02-19T13:58:52;15.70;99.90
10051;DHT22;5065;46.942;7.432;2023-02-19T14:04:24;15.50;99.90
10051;DHT22;5065;46.942;7.432;2023-02-19T14:10:01;15.50;99.90
10051;DHT22;5065;46.942;7.432;2023-02-19T14:12:33;15.50;99.90
10051;DHT22;5065;46.942;7.432;2023-02-19T14:15:41;15.50;99.90
10051;DHT22;5065;46.942;7.432;2023-02-19T14:18:40;15.50;99.90
10051;DHT22;5065;46.942;7.432;2023-02-19T14:21:15;15.50;99.90
10051;DHT22;5065;46.942;7.432;2023-02-19T14:23:44;15.50;99.90
10051;DHT22;5065;46.942;7.432;2023-02-19T14:26:16;15.50;99.90
10051;DHT22;5065;46.942;7.432;2023-02-19T14:28:44;15.60;99.90
10051;DHT22;5065;46.942;7.432;2023-02-19T14:31:24;15.60;99.90
10051;DHT22;5065;46.942;7.432;2023-02-19T14:33:54;15.60;99.90
10051;DHT22;5065;46.942;7.432;2023-02-19T14:36:40;15.60;99.90
10051;DHT22;5065;46.942;7.432;2023-02-19T14:39:13;15.60;99.90
10051;DHT22;5065;46.942;7.432;2023-02-19T14:41:44;15.50;99.90
10051;DHT22;5065;46.942;7.432;2023-02-19T14:44:18;15.50;99.90
10051;DHT22;5065;46.942;7.432;2023-02-19T14:46:56;15.50;99.90
10051;DHT22;5065;46.942;7.432;2023-02-19T14:49:28;15.40;99.90
10051;DHT22;5065;46.942;7.432;2023-02-19T14:51:58;15.40;99.90
10051;DHT22;5065;46.942;7.432;2023-02-19T14:54:37;15.40;99.90
10051;DHT22;5065;46.942;7.432;2023-02-19T14:57:11;15.40;99.90
10051;DHT22;5065;46.942;7.432;2023-02-19T14:59:51;15.40;99.90
10051;DHT22;5065;46.942;7.432;2023-02-19T15:02:21;15.40;99.90
10051;DHT22;5065;46.942;7.432;2023-02-19T15:04:51;15.30;99.90
10051;DHT22;5065;46.942;7.432;2023-02-19T15:07:21;15.30;99.90
10051;DHT22;5065;46.942;7.432;2023-02-19T15:09:51;15.30;99.90
10051;DHT22;5065;46.942;7.432;2023-02-19T15:12:20;15.30;99.90
10051;DHT22;5065;46.942;7.432;2023-02-19T15:14:50;15.20;99.90
10051;DHT22;5065;46.942;7.432;2023-02-19T15:17:24;15.20;99.90
10051;DHT22;5065;46.942;7.432;2023-02-19T15:19:52;15.20;99.90
10051;DHT22;5065;46.942;7.432;2023-02-19T15:22:21;15.20;99.90
10051;DHT22;5065;46.942;7.432;2023-02-19T15:24:50;15.20;99.90
10051;DHT22;5065;46.942;7.432;2023-02-19T15:27:18;15.10;99.90
10051;DHT22;5065;46.942;7.432;2023-02-19T15:29:47;15.10;99.90
10051;DHT22;5065;46.942;7.432;2023-02-19T15:32:17;15.10;99.90
10051;DHT22;5065;46.942;7.432;2023-02-19T15:34:54;15.00;99.90
10051;DHT22;5065;46.942;7.432;2023-02-19T15:37:22;15.10;99.90
10051;DHT22;5065;46.942;7.432;2023-02-19T15:39:50;15.10;99.90
10051;DHT22;5065;46.942;7.432;2023-02-19T15:42:20;15.00;99.90
10051;DHT22;5065;46.942;7.432;2023-02-19T15:44:52;15.00;99.90
10051;DHT22;5065;46.942;7.432;2023-02-19T15:47:24;15.00;99.90
10051;DHT22;5065;46.942;7.432;2023-02-19T15:49:56;15.00;99.90
10051;DHT22;5065;46.942;7.432;2023-02-19T15:52:31;14.90;99.90
10051;DHT22;5065;46.942;7.432;2023-02-19T15:55:06;15.00;99.90
10051;DHT22;5065;46.942;7.432;2023-02-19T15:57:40;15.00;99.90
10051;DHT22;5065;46.942;7.432;2023-02-19T16:00:13;15.00;99.90
10051;DHT22;5065;46.942;7.432;2023-02-19T16:02:41;14.90;99.90
10051;DHT22;5065;46.942;7.432;2023-02-19T16:05:21;14.90;99.90
10051;DHT22;5065;46.942;7.432;2023-02-19T16:08:15;14.90;99.90
10051;DHT22;5065;46.942;7.432;2023-02-19T16:10:55;14.90;99.90
10051;DHT22;5065;46.942;7.432;2023-02-19T16:13:23;14.80;99.90
10051;DHT22;5065;46.942;7.432;2023-02-19T16:16:01;14.70;99.90
10051;DHT22;5065;46.942;7.432;2023-02-19T16:18:29;14.60;99.90
10051;DHT22;5065;46.942;7.432;2023-02-19T16:20:58;14.50;99.90
10051;DHT22;5065;46.942;7.432;2023-02-19T16:23:25;14.40;99.90
10051;DHT22;5065;46.942;7.432;2023-02-19T16:26:00;14.40;99.90
10051;DHT22;5065;46.942;7.432;2023-02-19T16:28:36;14.30;99.90
10051;DHT22;5065;46.942;7.432;2023-02-19T16:31:05;14.30;99.90
10051;DHT22;5065;46.942;7.432;2023-02-19T16:33:38;14.20;99.90
10051;DHT22;5065;46.942;7.432;2023-02-19T16:36:18;14.10;99.90
10051;DHT22;5065;46.942;7.432;2023-02-19T16:39:14;14.00;99.90
10051;DHT22;5065;46.942;7.432;2023-02-19T16:42:15;13.90;99.90
10051;DHT22;5065;46.942;7.432;2023-02-19T16:44:43;13.80;99.90
10051;DHT22;5065;46.942;7.432;2023-02-19T16:47:28;13.80;99.90
10051;DHT22;5065;46.942;7.432;2023-02-19T16:49:56;13.60;99.90
10051;DHT22;5065;46.942;7.432;2023-02-19T16:52:27;13.60;99.90
10051;DHT22;5065;46.942;7.432;2023-02-19T16:54:54;13.60;99.90